sensor_id;sensor_type;location;lat;lon;timestamp;temperature;humidity
8979;DHT22;4524;51.364;5.448;2022-09-30T00:01:29;7.70;99.90
8979;DHT22;4524;51.364;5.448;2022-09-30T00:03:58;7.70;99.90
8979;DHT22;4524;51.364;5.448;2022-09-30T00:06:28;7.70;99.90
8979;DHT22;4524;51.364;5.448;2022-09-30T00:08:57;7.70;99.90
8979;DHT22;4524;51.364;5.448;2022-09-30T00:11:27;7.70;99.90
8979;DHT22;4524;51.364;5.448;2022-09-30T00:13:55;7.80;99.90
8979;DHT22;4524;51.364;5.448;2022-09-30T00:16:25;7.70;99.90
8979;DHT22;4524;51.364;5.448;2022-09-30T00:18:56;7.50;99.90
8979;DHT22;4524;51.364;5.448;2022-09-30T00:21:25;7.60;99.90
8979;DHT22;4524;51.364;5.448;2022-09-30T00:23:55;7.60;99.90
8979;DHT22;4524;51.364;5.448;2022-09-30T00:26:24;7.50;65.00
8979;DHT22;4524;51.364;5.448;2022-09-30T00:28:53;7.60;44.00
8979;DHT22;4524;51.364;5.448;2022-09-30T00:31:22;7.50;49.30
8979;DHT22;4524;51.364;5.448;2022-09-30T00:33:50;7.50;71.90
8979;DHT22;4524;51.364;5.448;2022-09-30T00:36:54;7.50;84.20
8979;DHT22;4524;51.364;5.448;2022-09-30T00:39:24;7.50;99.90
8979;DHT22;4524;51.364;5.448;2022-09-30T00:41:55;7.50;99.90
8979;DHT22;4524;51.364;5.448;2022-09-30T00:44:52;7.40;99.90
8979;DHT22;4524;51.364;5.448;2022-09-30T00:47:46;7.30;99.90
8979;DHT22;4524;51.364;5.448;2022-09-30T00:50:24;7.30;99.90
8979;DHT22;4524;51.364;5.448;2022-09-30T00:52:59;7.30;99.90
8979;DHT22;4524;51.364;5.448;2022-09-30T00:55:41;7.30;99.90
8979;DHT22;4524;51.364;5.448;2022-09-30T00:58:13;7.30;99.90
8979;DHT22;4524;51.364;5.448;2022-09-30T01:00:42;7.30;92.90
8979;DHT22;4524;51.364;5.448;2022-09-30T01:03:11;7.30;99.90
8979;DHT22;4524;51.364;5.448;2022-09-30T01:05:38;7.10;91.40
8979;DHT22;4524;51.364;5.448;2022-09-30T01:08:09;7.00;99.90
8979;DHT22;4524;51.364;5.448;2022-09-30T01:10:38;7.00;99.90
8979;DHT22;4524;51.364;5.448;2022-09-30T01:13:05;7.00;99.90
8979;DHT22;4524;51.364;5.448;2022-09-30T01:15:59;6.90;99.90
8979;DHT22;4524;51.364;5.448;2022-09-30T01:18:42;6.80;99.90
8979;DHT22;4524;51.364;5.448;2022-09-30T01:21:34;6.70;99.90
8979;DHT22;4524;51.364;5.448;2022-09-30T01:24:18;6.70;99.90
8979;DHT22;4524;51.364;5.448;2022-09-30T01:27:12;6.80;99.90
8979;DHT22;4524;51.364;5.448;2022-09-30T01:30:03;6.80;99.90
8979;DHT22;4524;51.364;5.448;2022-09-30T01:32:51;6.80;91.30
8979;DHT22;4524;51.364;5.448;2022-09-30T01:35:25;6.80;99.90
8979;DHT22;4524;51.364;5.448;2022-09-30T01:38:02;6.70;99.90
8979;DHT22;4524;51.364;5.448;2022-09-30T01:40:41;6.70;99.90
8979;DHT22;4524;51.364;5.448;2022-09-30T01:43:16;6.80;99.90
8979;DHT22;4524;51.364;5.448;2022-09-30T01:45:49;6.80;99.90
8979;DHT22;4524;51.364;5.448;2022-09-30T01:48:24;6.80;99.90
8979;DHT22;4524;51.364;5.448;2022-09-30T01:50:57;6.80;99.90
8979;DHT22;4524;51.364;5.448;2022-09-30T01:53:31;6.80;99.90
8979;DHT22;4524;51.364;5.448;2022-09-30T01:56:04;6.70;99.90
8979;DHT22;4524;51.364;5.448;2022-09-30T01:58:40;6.80;99.90
8979;DHT22;4524;51.364;5.448;2022-09-30T02:01:12;6.70;99.90
8979;DHT22;4524;51.364;5.448;2022-09-30T02:03:47;6.70;99.90
8979;DHT22;4524;51.364;5.448;2022-09-30T02:06:18;6.70;99.90
8979;DHT22;4524;51.364;5.448;2022-09-30T02:08:50;6.70;83.60
8979;DHT22;4524;51.364;5.448;2022-09-30T02:11:22;6.70;85.70
8979;DHT22;4524;51.364;5.448;2022-09-30T02:13:55;6.70;99.90
8979;DHT22;4524;51.364;5.448;2022-09-30T02:16:31;6.60;99.90
8979;DHT22;4524;51.364;5.448;2022-09-30T02:19:09;6.60;99.90
8979;DHT22;4524;51.364;5.448;2022-09-30T02:21:43;6.70;99.90
8979;DHT22;4524;51.364;5.448;2022-09-30T02:24:14;6.60;99.90
8979;DHT22;4524;51.364;5.448;2022-09-30T02:26:44;6.50;99.90
8979;DHT22;4524;51.364;5.448;2022-09-30T02:29:16;6.50;99.90
8979;DHT22;4524;51.364;5.448;2022-09-30T02:31:49;6.40;99.90
8979;DHT22;4524;51.364;5.448;2022-09-30T02:34:23;6.40;99.90
8979;DHT22;4524;51.364;5.448;2022-09-30T02:36:57;6.40;99.90
8979;DHT22;4524;51.364;5.448;2022-09-30T02:39:32;6.40;99.90
8979;DHT22;4524;51.364;5.448;2022-09-30T02:42:06;6.40;99.90
8979;DHT22;4524;51.364;5.448;2022-09-30T02:44:36;6.40;99.90
8979;DHT22;4524;51.364;5.448;2022-09-30T02:47:10;6.40;99.90
8979;DHT22;4524;51.364;5.448;2022-09-30T02:49:45;6.40;99.90
8979;DHT22;4524;51.364;5.448;2022-09-30T02:52:21;6.40;78.60
8979;DHT22;4524;51.364;5.448;2022-09-30T02:54:58;6.40;99.90
8979;DHT22;4524;51.364;5.448;2022-09-30T02:57:52;6.40;99.90
8979;DHT22;4524;51.364;5.448;2022-09-30T03:00:21;6.40;99.90
8979;DHT22;4524;51.364;5.448;2022-09-30T03:02:53;6.40;99.90
8979;DHT22;4524;51.364;5.448;2022-09-30T03:05:25;6.30;97.20
8979;DHT22;4524;51.364;5.448;2022-09-30T03:07:54;6.40;99.90
8979;DHT22;4524;51.364;5.448;2022-09-30T03:10:23;6.40;99.90
8979;DHT22;4524;51.364;5.448;2022-09-30T03:13:13;6.30;99.90
8979;DHT22;4524;51.364;5.448;2022-09-30T03:15:53;6.30;78.60
8979;DHT22;4524;51.364;5.448;2022-09-30T03:18:35;6.40;83.00
8979;DHT22;4524;51.364;5.448;2022-09-30T03:21:15;6.40;99.90
8979;DHT22;4524;51.364;5.448;2022-09-30T03:24:01;6.40;79.40
8979;DHT22;4524;51.364;5.448;2022-09-30T03:26:36;6.30;39.30
8979;DHT22;4524;51.364;5.448;2022-09-30T03:29:12;6.20;40.40
8979;DHT22;4524;51.364;5.448;2022-09-30T03:31:54;6.30;99.90
8979;DHT22;4524;51.364;5.448;2022-09-30T03:34:29;6.30;99.90
8979;DHT22;4524;51.364;5.448;2022-09-30T03:37:03;6.30;99.90
8979;DHT22;4524;51.364;5.448;2022-09-30T03:39:50;6.30;99.90
8979;DHT22;4524;51.364;5.448;2022-09-30T03:42:24;6.30;99.90
8979;DHT22;4524;51.364;5.448;2022-09-30T03:45:00;6.30;99.90
8979;DHT22;4524;51.364;5.448;2022-09-30T03:47:33;6.30;99.90
8979;DHT22;4524;51.364;5.448;2022-09-30T03:50:06;6.20;99.90
8979;DHT22;4524;51.364;5.448;2022-09-30T03:52:36;6.30;95.60
8979;DHT22;4524;51.364;5.448;2022-09-30T03:55:06;6.20;99.90
8979;DHT22;4524;51.364;5.448;2022-09-30T03:57:35;6.20;99.90
8979;DHT22;4524;51.364;5.448;2022-09-30T04:00:05;6.30;99.90
8979;DHT22;4524;51.364;5.448;2022-09-30T04:02:33;6.30;99.90
8979;DHT22;4524;51.364;5.448;2022-09-30T04:05:02;6.30;99.90
8979;DHT22;4524;51.364;5.448;2022-09-30T04:07:31;6.30;99.90
8979;DHT22;4524;51.364;5.448;2022-09-30T04:10:00;6.30;99.90
8979;DHT22;4524;51.364;5.448;2022-09-30T04:12:28;6.30;99.90
8979;DHT22;4524;51.364;5.448;2022-09-30T04:14:56;6.40;99.90
8979;DHT22;4524;51.364;5.448;2022-09-30T04:17:24;6.40;99.90
8979;DHT22;4524;51.364;5.448;2022-09-30T04:19:51;6.40;99.90
8979;DHT22;4524;51.364;5.448;2022-09-30T04:22:19;6.40;99.90
8979;DHT22;4524;51.364;5.448;2022-09-30T04:24:52;6.40;99.90
8979;DHT22;4524;51.364;5.448;2022-09-30T04:27:21;6.40;99.90
8979;DHT22;4524;51.364;5.448;2022-09-30T04:29:49;6.40;99.90
8979;DHT22;4524;51.364;5.448;2022-09-30T04:32:17;6.30;99.90
8979;DHT22;4524;51.364;5.448;2022-09-30T04:34:45;6.30;99.90
8979;DHT22;4524;51.364;5.448;2022-09-30T04:37:13;6.30;99.90
8979;DHT22;4524;51.364;5.448;2022-09-30T04:39:41;6.40;99.90
8979;DHT22;4524;51.364;5.448;2022-09-30T04:42:09;6.40;99.90
8979;DHT22;4524;51.364;5.448;2022-09-30T04:44:39;6.30;99.90
8979;DHT22;4524;51.364;5.448;2022-09-30T04:47:06;6.20;99.90
8979;DHT22;4524;51.364;5.448;2022-09-30T04:49:34;6.30;99.90
8979;DHT22;4524;51.364;5.448;2022-09-30T04:52:02;6.30;99.90
8979;DHT22;4524;51.364;5.448;2022-09-30T04:54:30;6.30;99.90
8979;DHT22;4524;51.364;5.448;2022-09-30T04:56:58;6.30;99.90
8979;DHT22;4524;51.364;5.448;2022-09-30T04:59:26;6.30;99.90
8979;DHT22;4524;51.364;5.448;2022-09-30T05:01:55;6.30;99.90
8979;DHT22;4524;51.364;5.448;2022-09-30T05:04:23;6.20;99.90
8979;DHT22;4524;51.364;5.448;2022-09-30T05:06:51;6.00;99.90
8979;DHT22;4524;51.364;5.448;2022-09-30T05:09:19;6.00;99.90
8979;DHT22;4524;51.364;5.448;2022-09-30T05:11:47;6.00;99.90
8979;DHT22;4524;51.364;5.448;2022-09-30T05:14:16;6.00;99.90
8979;DHT22;4524;51.364;5.448;2022-09-30T05:16:44;6.00;99.90
8979;DHT22;4524;51.364;5.448;2022-09-30T05:19:13;6.10;99.90
8979;DHT22;4524;51.364;5.448;2022-09-30T05:21:41;6.10;99.90
8979;DHT22;4524;51.364;5.448;2022-09-30T05:24:10;6.10;99.90
8979;DHT22;4524;51.364;5.448;2022-09-30T05:26:38;6.20;99.90
8979;DHT22;4524;51.364;5.448;2022-09-30T05:29:07;6.10;99.90
8979;DHT22;4524;51.364;5.448;2022-09-30T05:31:35;6.20;99.90
8979;DHT22;4524;51.364;5.448;2022-09-30T05:34:03;6.20;99.90
8979;DHT22;4524;51.364;5.448;2022-09-30T05:36:33;6.20;99.90
8979;DHT22;4524;51.364;5.448;2022-09-30T05:39:01;6.30;99.90
8979;DHT22;4524;51.364;5.448;2022-09-30T05:41:28;6.30;99.90
8979;DHT22;4524;51.364;5.448;2022-09-30T05:43:56;6.30;99.90
8979;DHT22;4524;51.364;5.448;2022-09-30T05:46:24;6.40;99.90
8979;DHT22;4524;51.364;5.448;2022-09-30T05:48:53;6.40;99.90
8979;DHT22;4524;51.364;5.448;2022-09-30T05:51:21;6.50;99.90
8979;DHT22;4524;51.364;5.448;2022-09-30T05:53:50;6.50;99.90
8979;DHT22;4524;51.364;5.448;2022-09-30T05:56:18;6.60;99.90
8979;DHT22;4524;51.364;5.448;2022-09-30T05:58:48;6.60;99.90
8979;DHT22;4524;51.364;5.448;2022-09-30T06:01:16;6.60;1.00
8979;DHT22;4524;51.364;5.448;2022-09-30T06:03:45;6.70;99.90
8979;DHT22;4524;51.364;5.448;2022-09-30T06:06:14;6.60;1.00
8979;DHT22;4524;51.364;5.448;2022-09-30T06:08:42;6.70;1.00
8979;DHT22;4524;51.364;5.448;2022-09-30T06:11:13;6.70;1.00
8979;DHT22;4524;51.364;5.448;2022-09-30T06:13:42;6.70;1.00
8979;DHT22;4524;51.364;5.448;2022-09-30T06:16:11;6.70;1.00
8979;DHT22;4524;51.364;5.448;2022-09-30T06:18:40;6.80;1.00
8979;DHT22;4524;51.364;5.448;2022-09-30T06:21:10;6.80;1.00
8979;DHT22;4524;51.364;5.448;2022-09-30T06:23:39;6.90;1.00
8979;DHT22;4524;51.364;5.448;2022-09-30T06:26:08;6.90;1.00
8979;DHT22;4524;51.364;5.448;2022-09-30T06:28:38;7.00;1.00
8979;DHT22;4524;51.364;5.448;2022-09-30T06:31:07;7.10;1.00
8979;DHT22;4524;51.364;5.448;2022-09-30T06:33:35;7.10;1.00
8979;DHT22;4524;51.364;5.448;2022-09-30T06:36:04;7.10;1.00
8979;DHT22;4524;51.364;5.448;2022-09-30T06:38:33;7.20;1.00
8979;DHT22;4524;51.364;5.448;2022-09-30T06:41:03;7.20;1.00
8979;DHT22;4524;51.364;5.448;2022-09-30T06:43:31;7.30;20.60
8979;DHT22;4524;51.364;5.448;2022-09-30T06:46:12;7.40;33.60
8979;DHT22;4524;51.364;5.448;2022-09-30T06:48:46;7.40;1.00
8979;DHT22;4524;51.364;5.448;2022-09-30T06:51:14;7.40;1.00
8979;DHT22;4524;51.364;5.448;2022-09-30T06:53:42;7.50;1.00
8979;DHT22;4524;51.364;5.448;2022-09-30T06:56:10;7.50;1.00
8979;DHT22;4524;51.364;5.448;2022-09-30T06:58:38;7.60;1.00
8979;DHT22;4524;51.364;5.448;2022-09-30T07:01:07;7.70;1.00
8979;DHT22;4524;51.364;5.448;2022-09-30T07:03:36;7.70;1.00
8979;DHT22;4524;51.364;5.448;2022-09-30T07:06:05;7.80;1.00
8979;DHT22;4524;51.364;5.448;2022-09-30T07:08:34;7.80;1.00
8979;DHT22;4524;51.364;5.448;2022-09-30T07:11:06;7.90;9.40
8979;DHT22;4524;51.364;5.448;2022-09-30T07:13:37;8.00;45.90
8979;DHT22;4524;51.364;5.448;2022-09-30T07:16:05;8.10;1.00
8979;DHT22;4524;51.364;5.448;2022-09-30T07:18:33;8.10;17.60
8979;DHT22;4524;51.364;5.448;2022-09-30T07:21:03;8.20;23.90
8979;DHT22;4524;51.364;5.448;2022-09-30T07:23:31;8.30;54.50
8979;DHT22;4524;51.364;5.448;2022-09-30T07:26:01;8.30;30.40
8979;DHT22;4524;51.364;5.448;2022-09-30T07:28:31;8.40;92.30
8979;DHT22;4524;51.364;5.448;2022-09-30T07:31:05;8.50;77.80
8979;DHT22;4524;51.364;5.448;2022-09-30T07:33:53;8.50;99.90
8979;DHT22;4524;51.364;5.448;2022-09-30T07:36:24;8.60;99.90
8979;DHT22;4524;51.364;5.448;2022-09-30T07:39:00;8.60;99.90
8979;DHT22;4524;51.364;5.448;2022-09-30T07:41:32;8.70;99.90
8979;DHT22;4524;51.364;5.448;2022-09-30T07:44:02;8.80;99.90
8979;DHT22;4524;51.364;5.448;2022-09-30T07:46:34;8.90;99.90
8979;DHT22;4524;51.364;5.448;2022-09-30T07:49:05;9.00;99.90
8979;DHT22;4524;51.364;5.448;2022-09-30T07:51:37;9.10;99.90
8979;DHT22;4524;51.364;5.448;2022-09-30T07:54:07;9.30;99.90
8979;DHT22;4524;51.364;5.448;2022-09-30T07:56:36;9.30;99.90
8979;DHT22;4524;51.364;5.448;2022-09-30T07:59:26;9.40;99.90
8979;DHT22;4524;51.364;5.448;2022-09-30T08:01:54;9.60;99.90
8979;DHT22;4524;51.364;5.448;2022-09-30T08:04:25;9.70;99.90
8979;DHT22;4524;51.364;5.448;2022-09-30T08:06:55;9.80;99.90
8979;DHT22;4524;51.364;5.448;2022-09-30T08:09:25;9.90;99.90
8979;DHT22;4524;51.364;5.448;2022-09-30T08:11:54;10.00;99.90
8979;DHT22;4524;51.364;5.448;2022-09-30T08:14:24;10.10;99.90
8979;DHT22;4524;51.364;5.448;2022-09-30T08:16:53;10.20;99.90
8979;DHT22;4524;51.364;5.448;2022-09-30T08:19:23;10.30;99.90
8979;DHT22;4524;51.364;5.448;2022-09-30T08:21:51;10.40;99.90
8979;DHT22;4524;51.364;5.448;2022-09-30T08:24:22;10.40;1.00
8979;DHT22;4524;51.364;5.448;2022-09-30T08:26:51;10.50;1.00
8979;DHT22;4524;51.364;5.448;2022-09-30T08:29:19;10.50;73.40
8979;DHT22;4524;51.364;5.448;2022-09-30T08:32:07;10.60;99.30
8979;DHT22;4524;51.364;5.448;2022-09-30T08:34:35;10.70;99.90
8979;DHT22;4524;51.364;5.448;2022-09-30T08:37:03;10.80;99.90
8979;DHT22;4524;51.364;5.448;2022-09-30T08:39:36;10.90;86.20
8979;DHT22;4524;51.364;5.448;2022-09-30T08:42:25;11.10;99.90
8979;DHT22;4524;51.364;5.448;2022-09-30T08:45:19;11.30;99.90
8979;DHT22;4524;51.364;5.448;2022-09-30T08:47:56;11.40;75.00
8979;DHT22;4524;51.364;5.448;2022-09-30T08:50:30;11.60;1.00
8979;DHT22;4524;51.364;5.448;2022-09-30T08:53:02;11.80;2.40
8979;DHT22;4524;51.364;5.448;2022-09-30T08:55:38;11.90;99.90
8979;DHT22;4524;51.364;5.448;2022-09-30T08:58:15;12.00;99.90
8979;DHT22;4524;51.364;5.448;2022-09-30T09:01:14;12.20;99.90
8979;DHT22;4524;51.364;5.448;2022-09-30T09:03:43;12.30;75.30
8979;DHT22;4524;51.364;5.448;2022-09-30T09:06:19;12.40;1.00
8979;DHT22;4524;51.364;5.448;2022-09-30T09:12:00;12.50;99.90
8979;DHT22;4524;51.364;5.448;2022-09-30T09:14:44;12.60;99.90
8979;DHT22;4524;51.364;5.448;2022-09-30T09:17:26;12.70;99.90
8979;DHT22;4524;51.364;5.448;2022-09-30T09:20:01;12.90;99.90
8979;DHT22;4524;51.364;5.448;2022-09-30T09:22:30;13.00;99.90
8979;DHT22;4524;51.364;5.448;2022-09-30T09:24:59;13.20;99.90
8979;DHT22;4524;51.364;5.448;2022-09-30T09:27:40;13.30;99.90
8979;DHT22;4524;51.364;5.448;2022-09-30T09:30:10;13.40;99.90
8979;DHT22;4524;51.364;5.448;2022-09-30T09:32:39;13.50;99.90
8979;DHT22;4524;51.364;5.448;2022-09-30T09:35:13;13.60;99.90
8979;DHT22;4524;51.364;5.448;2022-09-30T09:37:48;13.60;62.60
8979;DHT22;4524;51.364;5.448;2022-09-30T09:40:45;13.70;49.40
8979;DHT22;4524;51.364;5.448;2022-09-30T09:43:32;13.80;58.80
8979;DHT22;4524;51.364;5.448;2022-09-30T09:46:11;14.00;2.00
8979;DHT22;4524;51.364;5.448;2022-09-30T09:48:40;14.00;1.00
8979;DHT22;4524;51.364;5.448;2022-09-30T09:51:18;14.10;1.00
8979;DHT22;4524;51.364;5.448;2022-09-30T09:53:49;14.20;1.00
8979;DHT22;4524;51.364;5.448;2022-09-30T09:56:20;14.30;1.00
8979;DHT22;4524;51.364;5.448;2022-09-30T09:59:06;14.40;1.00
8979;DHT22;4524;51.364;5.448;2022-09-30T10:01:36;14.40;1.00
8979;DHT22;4524;51.364;5.448;2022-09-30T10:04:07;14.40;1.00
8979;DHT22;4524;51.364;5.448;2022-09-30T10:06:53;14.60;1.00
8979;DHT22;4524;51.364;5.448;2022-09-30T10:09:23;14.70;1.00
8979;DHT22;4524;51.364;5.448;2022-09-30T10:12:25;14.70;1.00
8979;DHT22;4524;51.364;5.448;2022-09-30T10:15:17;14.90;99.90
8979;DHT22;4524;51.364;5.448;2022-09-30T10:17:52;15.00;99.90
8979;DHT22;4524;51.364;5.448;2022-09-30T10:20:28;15.00;99.90
8979;DHT22;4524;51.364;5.448;2022-09-30T10:23:01;15.10;99.90
8979;DHT22;4524;51.364;5.448;2022-09-30T10:25:31;15.20;99.90
8979;DHT22;4524;51.364;5.448;2022-09-30T10:28:01;15.20;99.90
8979;DHT22;4524;51.364;5.448;2022-09-30T10:30:34;15.20;99.90
8979;DHT22;4524;51.364;5.448;2022-09-30T10:33:12;15.40;99.90
8979;DHT22;4524;51.364;5.448;2022-09-30T10:36:00;15.40;99.90
8979;DHT22;4524;51.364;5.448;2022-09-30T10:38:29;15.50;99.90
8979;DHT22;4524;51.364;5.448;2022-09-30T10:40:58;15.60;99.90
8979;DHT22;4524;51.364;5.448;2022-09-30T10:43:29;15.50;99.90
8979;DHT22;4524;51.364;5.448;2022-09-30T10:46:00;15.40;99.90
8979;DHT22;4524;51.364;5.448;2022-09-30T10:48:51;15.50;99.90
8979;DHT22;4524;51.364;5.448;2022-09-30T10:51:29;15.60;99.90
8979;DHT22;4524;51.364;5.448;2022-09-30T10:53:59;15.70;99.90
8979;DHT22;4524;51.364;5.448;2022-09-30T10:56:37;15.80;99.90
8979;DHT22;4524;51.364;5.448;2022-09-30T10:59:13;16.00;99.90
8979;DHT22;4524;51.364;5.448;2022-09-30T11:01:49;16.10;99.90
8979;DHT22;4524;51.364;5.448;2022-09-30T11:04:27;16.30;99.90
8979;DHT22;4524;51.364;5.448;2022-09-30T11:07:02;16.40;99.90
8979;DHT22;4524;51.364;5.448;2022-09-30T11:09:34;16.70;99.90
8979;DHT22;4524;51.364;5.448;2022-09-30T11:12:10;16.70;99.90
8979;DHT22;4524;51.364;5.448;2022-09-30T11:14:44;16.80;99.90
8979;DHT22;4524;51.364;5.448;2022-09-30T11:17:24;16.70;99.90
8979;DHT22;4524;51.364;5.448;2022-09-30T11:20:00;16.70;99.90
8979;DHT22;4524;51.364;5.448;2022-09-30T11:22:38;16.70;99.90
8979;DHT22;4524;51.364;5.448;2022-09-30T11:25:12;16.70;99.90
8979;DHT22;4524;51.364;5.448;2022-09-30T11:27:51;16.70;99.90
8979;DHT22;4524;51.364;5.448;2022-09-30T11:30:25;17.00;99.90
8979;DHT22;4524;51.364;5.448;2022-09-30T11:33:11;17.00;99.90
8979;DHT22;4524;51.364;5.448;2022-09-30T11:35:52;16.90;99.90
8979;DHT22;4524;51.364;5.448;2022-09-30T11:38:33;16.70;99.90
8979;DHT22;4524;51.364;5.448;2022-09-30T11:41:09;16.70;99.90
8979;DHT22;4524;51.364;5.448;2022-09-30T11:43:46;16.60;99.90
8979;DHT22;4524;51.364;5.448;2022-09-30T11:46:34;16.40;99.90
8979;DHT22;4524;51.364;5.448;2022-09-30T11:49:23;16.40;99.90
8979;DHT22;4524;51.364;5.448;2022-09-30T11:52:00;16.40;99.90
8979;DHT22;4524;51.364;5.448;2022-09-30T11:57:28;16.80;99.90
8979;DHT22;4524;51.364;5.448;2022-09-30T12:00:01;17.10;99.90
8979;DHT22;4524;51.364;5.448;2022-09-30T12:02:39;17.40;99.90
8979;DHT22;4524;51.364;5.448;2022-09-30T12:05:12;17.40;99.90
8979;DHT22;4524;51.364;5.448;2022-09-30T12:07:43;17.30;99.90
8979;DHT22;4524;51.364;5.448;2022-09-30T12:10:19;17.40;99.90
8979;DHT22;4524;51.364;5.448;2022-09-30T12:12:50;17.30;99.90
8979;DHT22;4524;51.364;5.448;2022-09-30T12:15:22;17.20;99.90
8979;DHT22;4524;51.364;5.448;2022-09-30T12:17:56;17.00;99.90
8979;DHT22;4524;51.364;5.448;2022-09-30T12:20:30;16.90;99.90
8979;DHT22;4524;51.364;5.448;2022-09-30T12:23:04;16.80;99.90
8979;DHT22;4524;51.364;5.448;2022-09-30T12:25:39;16.90;99.90
8979;DHT22;4524;51.364;5.448;2022-09-30T12:28:15;17.00;99.90
8979;DHT22;4524;51.364;5.448;2022-09-30T12:31:11;17.10;99.90
8979;DHT22;4524;51.364;5.448;2022-09-30T12:33:52;17.20;99.90
8979;DHT22;4524;51.364;5.448;2022-09-30T12:36:44;17.30;99.90
8979;DHT22;4524;51.364;5.448;2022-09-30T12:39:50;17.30;99.90
8979;DHT22;4524;51.364;5.448;2022-09-30T12:42:45;17.30;99.90
8979;DHT22;4524;51.364;5.448;2022-09-30T12:45:44;17.50;99.90
8979;DHT22;4524;51.364;5.448;2022-09-30T12:48:20;17.70;99.90
8979;DHT22;4524;51.364;5.448;2022-09-30T12:50:51;17.50;99.90
8979;DHT22;4524;51.364;5.448;2022-09-30T12:53:27;17.20;99.90
8979;DHT22;4524;51.364;5.448;2022-09-30T12:56:02;17.20;99.90
8979;DHT22;4524;51.364;5.448;2022-09-30T12:58:33;17.20;99.90
8979;DHT22;4524;51.364;5.448;2022-09-30T13:01:05;17.20;99.90
8979;DHT22;4524;51.364;5.448;2022-09-30T13:03:51;17.20;99.90
8979;DHT22;4524;51.364;5.448;2022-09-30T13:06:22;17.20;99.90
8979;DHT22;4524;51.364;5.448;2022-09-30T13:09:19;17.10;99.90
8979;DHT22;4524;51.364;5.448;2022-09-30T13:12:14;17.20;99.90
8979;DHT22;4524;51.364;5.448;2022-09-30T13:14:43;17.40;99.90
8979;DHT22;4524;51.364;5.448;2022-09-30T13:17:26;17.60;99.90
8979;DHT22;4524;51.364;5.448;2022-09-30T13:19:54;17.60;99.90
8979;DHT22;4524;51.364;5.448;2022-09-30T13:22:53;17.60;99.90
8979;DHT22;4524;51.364;5.448;2022-09-30T13:25:23;17.70;99.90
8979;DHT22;4524;51.364;5.448;2022-09-30T13:27:52;17.90;99.90
8979;DHT22;4524;51.364;5.448;2022-09-30T13:30:36;18.00;99.90
8979;DHT22;4524;51.364;5.448;2022-09-30T13:33:38;18.30;99.90
8979;DHT22;4524;51.364;5.448;2022-09-30T13:36:16;18.30;99.90
8979;DHT22;4524;51.364;5.448;2022-09-30T13:38:45;18.30;99.90
8979;DHT22;4524;51.364;5.448;2022-09-30T13:41:18;18.00;99.90
8979;DHT22;4524;51.364;5.448;2022-09-30T13:43:55;18.00;99.90
8979;DHT22;4524;51.364;5.448;2022-09-30T13:46:30;17.70;99.90
8979;DHT22;4524;51.364;5.448;2022-09-30T13:49:05;17.70;99.90
8979;DHT22;4524;51.364;5.448;2022-09-30T13:51:36;18.00;99.90
8979;DHT22;4524;51.364;5.448;2022-09-30T13:54:12;18.30;99.90
8979;DHT22;4524;51.364;5.448;2022-09-30T13:56:43;18.20;99.90
8979;DHT22;4524;51.364;5.448;2022-09-30T13:59:32;18.20;99.90
8979;DHT22;4524;51.364;5.448;2022-09-30T14:02:26;18.00;99.90
8979;DHT22;4524;51.364;5.448;2022-09-30T14:05:14;17.90;99.90
8979;DHT22;4524;51.364;5.448;2022-09-30T14:08:03;17.80;99.90
8979;DHT22;4524;51.364;5.448;2022-09-30T14:10:42;17.60;99.90
8979;DHT22;4524;51.364;5.448;2022-09-30T14:13:30;17.50;99.90
8979;DHT22;4524;51.364;5.448;2022-09-30T14:16:09;17.40;99.90
8979;DHT22;4524;51.364;5.448;2022-09-30T14:19:04;17.30;99.90
8979;DHT22;4524;51.364;5.448;2022-09-30T14:21:37;17.40;99.90
8979;DHT22;4524;51.364;5.448;2022-09-30T14:24:10;17.40;99.90
8979;DHT22;4524;51.364;5.448;2022-09-30T14:26:50;17.40;99.90
8979;DHT22;4524;51.364;5.448;2022-09-30T14:29:28;17.30;99.90
8979;DHT22;4524;51.364;5.448;2022-09-30T14:32:09;17.40;99.90
8979;DHT22;4524;51.364;5.448;2022-09-30T14:34:37;17.40;99.90
8979;DHT22;4524;51.364;5.448;2022-09-30T14:37:05;17.40;99.90
8979;DHT22;4524;51.364;5.448;2022-09-30T14:39:45;17.40;99.90
8979;DHT22;4524;51.364;5.448;2022-09-30T14:42:21;17.30;99.90
8979;DHT22;4524;51.364;5.448;2022-09-30T14:44:54;17.20;99.90
8979;DHT22;4524;51.364;5.448;2022-09-30T14:47:27;17.10;99.90
8979;DHT22;4524;51.364;5.448;2022-09-30T14:49:59;17.00;99.90
8979;DHT22;4524;51.364;5.448;2022-09-30T14:52:36;16.90;99.90
8979;DHT22;4524;51.364;5.448;2022-09-30T14:55:21;16.90;99.90
8979;DHT22;4524;51.364;5.448;2022-09-30T14:57:51;16.90;99.90
8979;DHT22;4524;51.364;5.448;2022-09-30T15:00:27;16.80;99.90
8979;DHT22;4524;51.364;5.448;2022-09-30T15:02:56;16.80;99.90
8979;DHT22;4524;51.364;5.448;2022-09-30T15:05:24;16.80;99.90
8979;DHT22;4524;51.364;5.448;2022-09-30T15:07:53;16.90;99.90
8979;DHT22;4524;51.364;5.448;2022-09-30T15:10:23;17.00;99.90
8979;DHT22;4524;51.364;5.448;2022-09-30T15:12:52;17.00;99.90
8979;DHT22;4524;51.364;5.448;2022-09-30T15:15:32;17.00;99.90
8979;DHT22;4524;51.364;5.448;2022-09-30T15:18:27;17.10;99.90
8979;DHT22;4524;51.364;5.448;2022-09-30T15:20:57;17.00;99.90
8979;DHT22;4524;51.364;5.448;2022-09-30T15:23:29;17.00;99.90
8979;DHT22;4524;51.364;5.448;2022-09-30T15:25:58;17.10;99.90
8979;DHT22;4524;51.364;5.448;2022-09-30T15:28:26;17.00;99.90
8979;DHT22;4524;51.364;5.448;2022-09-30T15:30:58;17.00;99.90
8979;DHT22;4524;51.364;5.448;2022-09-30T15:33:26;17.00;99.90
8979;DHT22;4524;51.364;5.448;2022-09-30T15:36:02;16.90;99.90
8979;DHT22;4524;51.364;5.448;2022-09-30T15:38:32;16.90;99.90
8979;DHT22;4524;51.364;5.448;2022-09-30T15:41:03;16.80;99.90
8979;DHT22;4524;51.364;5.448;2022-09-30T15:43:35;16.80;99.90
8979;DHT22;4524;51.364;5.448;2022-09-30T15:46:32;16.70;99.90
8979;DHT22;4524;51.364;5.448;2022-09-30T15:49:02;16.60;99.90
8979;DHT22;4524;51.364;5.448;2022-09-30T15:51:36;16.50;99.90
8979;DHT22;4524;51.364;5.448;2022-09-30T15:54:26;16.50;99.90
8979;DHT22;4524;51.364;5.448;2022-09-30T15:56:54;16.40;99.90
8979;DHT22;4524;51.364;5.448;2022-09-30T15:59:55;16.40;99.90
8979;DHT22;4524;51.364;5.448;2022-09-30T16:02:26;16.30;99.90
8979;DHT22;4524;51.364;5.448;2022-09-30T16:04:55;16.30;99.90
8979;DHT22;4524;51.364;5.448;2022-09-30T16:07:24;16.30;99.90
8979;DHT22;4524;51.364;5.448;2022-09-30T16:09:55;16.20;99.90
8979;DHT22;4524;51.364;5.448;2022-09-30T16:12:26;16.20;99.90
8979;DHT22;4524;51.364;5.448;2022-09-30T16:14:58;16.20;99.90
8979;DHT22;4524;51.364;5.448;2022-09-30T16:17:30;16.20;99.90
8979;DHT22;4524;51.364;5.448;2022-09-30T16:20:00;16.10;99.90
8979;DHT22;4524;51.364;5.448;2022-09-30T16:22:51;16.10;99.90
8979;DHT22;4524;51.364;5.448;2022-09-30T16:25:22;16.00;99.90
8979;DHT22;4524;51.364;5.448;2022-09-30T16:27:55;16.00;99.90
8979;DHT22;4524;51.364;5.448;2022-09-30T16:30:25;15.80;99.90
8979;DHT22;4524;51.364;5.448;2022-09-30T16:32:56;15.80;99.90
8979;DHT22;4524;51.364;5.448;2022-09-30T16:35:26;15.70;99.90
8979;DHT22;4524;51.364;5.448;2022-09-30T16:37:59;15.70;99.90
8979;DHT22;4524;51.364;5.448;2022-09-30T16:40:28;15.60;99.90
8979;DHT22;4524;51.364;5.448;2022-09-30T16:42:56;15.50;99.90
8979;DHT22;4524;51.364;5.448;2022-09-30T16:45:29;15.50;99.90
8979;DHT22;4524;51.364;5.448;2022-09-30T16:47:59;15.40;99.90
8979;DHT22;4524;51.364;5.448;2022-09-30T16:50:32;15.30;99.90
8979;DHT22;4524;51.364;5.448;2022-09-30T16:53:01;15.20;99.90
8979;DHT22;4524;51.364;5.448;2022-09-30T16:55:29;15.20;99.90
8979;DHT22;4524;51.364;5.448;2022-09-30T16:57:58;15.10;99.90
8979;DHT22;4524;51.364;5.448;2022-09-30T17:00:27;15.10;99.90
8979;DHT22;4524;51.364;5.448;2022-09-30T17:02:55;15.00;99.90
8979;DHT22;4524;51.364;5.448;2022-09-30T17:05:26;15.00;99.90